Kaio Maru — JD2067 — position and weather

sailwx.info

Track history (hours):
 
Tides and Currents Weather Stations Pressure Air Temp Water Temp Dewpoint Dewpoint Depression Visibility Wind Speed Wind Dir Waves Ship Positions

Kaio Maru

Last reported at 2017-Feb-21 11:33 UTC. Time now 2017-Feb-21 12:07 UTC.
Position N 35°35' E 139°47'.

Length 36 m; draft 3.2 m.

Type: Tug. MMSI: 431001455.

Date/timePositionNaut miles runAvg speedWind from/ knotsBaromVisibWave heightAir tempDewpointWater temp
2017-Feb-21 11:33N 35°35' E 139°47'1 0.6
2017-Feb-21 10:34N 35°36' E 139°48'1 1.0
2017-Feb-21 09:33N 35°37' E 139°48'3 2.6
2017-Feb-21 08:33N 35°38' E 139°45'0 0.0
2017-Feb-21 07:33N 35°38' E 139°45'0 0.0
2017-Feb-21 06:33N 35°38' E 139°45'0 0.0
2017-Feb-21 05:33N 35°38' E 139°45'0 0.0
2017-Feb-21 04:34N 35°38' E 139°45'0 0.0
2017-Feb-21 03:34N 35°38' E 139°45'0 0.0
2017-Feb-21 02:33N 35°38' E 139°45'0 0.0
2017-Feb-21 01:33N 35°38' E 139°45'0 0.0
2017-Feb-21 00:33N 35°38' E 139°45'0 0.0
2017-Feb-20 23:33N 35°38' E 139°45'2 2.4
2017-Feb-20 22:33N 35°36' E 139°46'2 2.4
2017-Feb-20 21:33N 35°34' E 139°49'3 2.6
2017-Feb-20 20:29N 35°36' E 139°46'2 1.1
2017-Feb-20 18:33N 35°38' E 139°45'0 0.0
2017-Feb-20 17:33N 35°38' E 139°45'0 0.0
2017-Feb-20 16:33N 35°38' E 139°45'0 0.0
2017-Feb-20 15:33N 35°38' E 139°45'0 0.0
2017-Feb-20 14:33N 35°38' E 139°45'0 0.0
2017-Feb-20 13:34N 35°38' E 139°45'0 0.0
2017-Feb-20 12:33N 35°38' E 139°45'0 0.0
2017-Feb-20 11:33N 35°38' E 139°45'0 0.0
2017-Feb-20 10:33N 35°38' E 139°45'0 0.0
2017-Feb-20 09:33N 35°38' E 139°45'0 0.0
2017-Feb-20 08:33N 35°38' E 139°45'0 0.0
2017-Feb-20 07:33N 35°38' E 139°45'0 0.0
2017-Feb-20 06:33N 35°38' E 139°45'0 0.0
2017-Feb-20 05:33N 35°38' E 139°45'0 0.0
2017-Feb-20 04:33N 35°38' E 139°45'0 0.0
2017-Feb-20 03:33N 35°38' E 139°45'0 0.0
2017-Feb-20 02:33N 35°38' E 139°45'0 0.0
2017-Feb-20 01:33N 35°38' E 139°45'0 0.0
2017-Feb-20 00:33N 35°38' E 139°45'1 0.7
2017-Feb-19 23:33N 35°38' E 139°46'2 2.3
2017-Feb-19 22:33N 35°36' E 139°47'0 0.3
2017-Feb-19 21:34N 35°35' E 139°47'0 0.0
2017-Feb-19 20:33N 35°35' E 139°47'1 1.1
2017-Feb-19 19:34N 35°37' E 139°47'2 2.0
2017-Feb-19 18:34N 35°38' E 139°45'0 0.1
2017-Feb-19 17:33N 35°38' E 139°46'0 0.0
2017-Feb-19 16:34N 35°38' E 139°46'0 0.0
2017-Feb-19 15:33N 35°38' E 139°46'0 0.0
2017-Feb-19 14:34N 35°38' E 139°46'0 0.0
2017-Feb-19 13:34N 35°38' E 139°46'0 0.0
2017-Feb-19 12:33N 35°38' E 139°46'0 0.0
2017-Feb-19 11:34N 35°38' E 139°46'0 0.0
2017-Feb-19 10:34N 35°38' E 139°46'0 0.0
2017-Feb-19 09:33N 35°38' E 139°46'0 0.0
2017-Feb-19 08:33N 35°38' E 139°46'0 0.0
2017-Feb-19 07:33N 35°38' E 139°46'0 0.0
2017-Feb-19 06:33N 35°38' E 139°46'0 0.0
2017-Feb-19 05:33N 35°38' E 139°46'0 0.0
2017-Feb-19 04:33N 35°38' E 139°46'0 0.0
2017-Feb-19 03:34N 35°38' E 139°46'0 0.0
2017-Feb-19 02:34N 35°38' E 139°46'0 0.0
2017-Feb-19 01:34N 35°38' E 139°46'0 0.0
2017-Feb-19 00:34N 35°38' E 139°46'0 0.0
2017-Feb-18 23:33N 35°38' E 139°46'0 0.0
2017-Feb-18 22:33N 35°38' E 139°46'0 0.0
2017-Feb-18 21:33N 35°38' E 139°46'0 0.0
2017-Feb-18 20:33N 35°38' E 139°46'0 0.0
2017-Feb-18 19:33N 35°38' E 139°46'0 0.0
2017-Feb-18 18:34N 35°38' E 139°46'0 0.0
2017-Feb-18 17:33N 35°38' E 139°46'0 0.0
2017-Feb-18 16:33N 35°38' E 139°46'0 0.0
2017-Feb-18 15:33N 35°38' E 139°46'0 0.0
2017-Feb-18 14:33N 35°38' E 139°46'0 0.0
2017-Feb-18 13:34N 35°38' E 139°46'0 0.0
2017-Feb-18 12:33N 35°38' E 139°46'0 0.0
2017-Feb-18 11:33N 35°38' E 139°46'0 0.0
2017-Feb-18 10:33N 35°38' E 139°46'0 0.0
2017-Feb-18 09:34N 35°38' E 139°46'0 0.0
2017-Feb-18 08:33N 35°38' E 139°46'0 0.0
2017-Feb-18 07:34N 35°38' E 139°46'0 0.0
2017-Feb-18 06:33N 35°38' E 139°46'0 0.0
2017-Feb-18 05:33N 35°38' E 139°46'0 0.0
2017-Feb-18 04:34N 35°38' E 139°46'0 0.0
2017-Feb-18 03:34N 35°38' E 139°46'0 0.0
2017-Feb-18 02:33N 35°38' E 139°46'0 0.0
2017-Feb-18 01:33N 35°38' E 139°46'0 0.0
2017-Feb-18 00:33N 35°38' E 139°46'0 0.0
2017-Feb-17 23:34N 35°38' E 139°46'0 0.0
2017-Feb-17 22:34N 35°38' E 139°46'0 0.0
2017-Feb-17 21:33N 35°38' E 139°46'2 2.0
2017-Feb-17 20:33N 35°36' E 139°46'2 2.0
2017-Feb-17 19:34N 35°38' E 139°45'0 0.0
2017-Feb-17 18:34N 35°38' E 139°45'0 0.0
2017-Feb-17 17:33N 35°38' E 139°45'0 0.0
2017-Feb-17 16:33N 35°38' E 139°45'0 0.0
2017-Feb-17 15:33N 35°38' E 139°45'0 0.0
2017-Feb-17 14:33N 35°38' E 139°45'0 0.0
2017-Feb-17 13:33N 35°38' E 139°45'2 2.0
2017-Feb-17 12:33N 35°37' E 139°47'0 0.1
2017-Feb-17 11:33N 35°37' E 139°47'1 1.0
2017-Feb-17 10:33N 35°37' E 139°48'1 1.0
2017-Feb-17 09:33N 35°37' E 139°47'4 3.9
2017-Feb-17 08:34N 35°34' E 139°50'5 4.9
2017-Feb-17 07:33N 35°37' E 139°46'1 1.2
2017-Feb-17 06:34N 35°38' E 139°45'0 0.0
2017-Feb-17 05:33N 35°38' E 139°45'0 0.0
2017-Feb-17 04:33N 35°38' E 139°45'0 0.0
2017-Feb-17 03:33N 35°38' E 139°45'0 0.0
2017-Feb-17 02:34N 35°38' E 139°45'0 0.0
2017-Feb-17 01:34N 35°38' E 139°45'0 0.0
2017-Feb-17 00:33N 35°38' E 139°45'0 0.0
2017-Feb-16 23:33N 35°38' E 139°45'3 2.8
2017-Feb-16 22:33N 35°36' E 139°48'1 0.9
2017-Feb-16 21:33N 35°36' E 139°47'0 0.2
2017-Feb-16 20:33N 35°36' E 139°46'0 0.3
2017-Feb-16 19:34N 35°36' E 139°46'2 2.4
2017-Feb-16 18:33N 35°38' E 139°45'0 0.0
2017-Feb-16 17:33N 35°38' E 139°45'0 0.0
2017-Feb-16 16:33N 35°38' E 139°45'0 0.0
2017-Feb-16 15:34N 35°38' E 139°45'0 0.0
2017-Feb-16 14:33N 35°38' E 139°45'0 0.0
2017-Feb-16 13:33N 35°38' E 139°45'0 0.0
2017-Feb-16 12:34N 35°38' E 139°45'0 0.0
2017-Feb-16 11:34N 35°38' E 139°45'0 0.0
2017-Feb-16 10:33N 35°38' E 139°45'0 0.0
2017-Feb-16 09:34N 35°38' E 139°45'0 0.0
2017-Feb-16 08:33N 35°38' E 139°45'0 0.0
2017-Feb-16 07:34N 35°38' E 139°45'0 0.0
2017-Feb-16 06:33N 35°38' E 139°45'0 0.0
2017-Feb-16 05:33N 35°38' E 139°45'0 0.0
2017-Feb-16 04:34N 35°38' E 139°45'0 0.0
2017-Feb-16 03:34N 35°38' E 139°45'0 0.0
2017-Feb-16 02:34N 35°38' E 139°45'0 0.0
2017-Feb-16 01:34N 35°38' E 139°45'0 0.0
2017-Feb-16 00:33N 35°38' E 139°45'2 2.1
2017-Feb-15 23:33N 35°36' E 139°47'2 1.5
2017-Feb-15 22:33N 35°35' E 139°47'4 3.6
2017-Feb-15 21:34N 35°38' E 139°46'0 0.0
2017-Feb-15 20:34N 35°38' E 139°46'0 0.0
2017-Feb-15 19:34N 35°38' E 139°46'0 0.0
2017-Feb-15 18:33N 35°38' E 139°46'0 0.0
2017-Feb-15 17:33N 35°38' E 139°46'0 0.0
2017-Feb-15 16:33N 35°38' E 139°46'0 0.0
2017-Feb-15 15:34N 35°38' E 139°46'0 0.0
2017-Feb-15 14:33N 35°38' E 139°46'0 0.0
2017-Feb-15 13:34N 35°38' E 139°46'0 0.0
2017-Feb-15 12:34N 35°38' E 139°46'0 0.0
2017-Feb-15 11:34N 35°38' E 139°46'0 0.0
2017-Feb-15 10:33N 35°38' E 139°46'0 0.0
2017-Feb-15 09:33N 35°38' E 139°46'0 0.0
2017-Feb-15 08:34N 35°38' E 139°46'0 0.0
2017-Feb-15 07:34N 35°38' E 139°46'0 0.0
2017-Feb-15 06:34N 35°38' E 139°46'0 0.0
2017-Feb-15 05:34N 35°38' E 139°46'0 0.0
2017-Feb-15 04:34N 35°38' E 139°46'0 0.0
2017-Feb-15 03:33N 35°38' E 139°46'0 0.0
2017-Feb-15 02:34N 35°38' E 139°46'0 0.0
2017-Feb-15 01:33N 35°38' E 139°46'0 0.0
2017-Feb-15 00:33N 35°38' E 139°46'0 0.0
2017-Feb-14 23:34N 35°38' E 139°46'3 3.1
2017-Feb-14 22:33N 35°35' E 139°47'0 0.5
2017-Feb-14 21:34N 35°36' E 139°47'2 1.7
2017-Feb-14 20:34N 35°37' E 139°46'1 1.0
2017-Feb-14 19:34N 35°36' E 139°46'2 2.0
2017-Feb-14 18:34N 35°38' E 139°46'0 0.0
2017-Feb-14 17:33N 35°38' E 139°46'0 0.0
2017-Feb-14 16:34N 35°38' E 139°46'0 0.0
2017-Feb-14 15:33N 35°38' E 139°46'0 0.0
2017-Feb-14 14:33N 35°38' E 139°46'0 0.0
2017-Feb-14 13:33N 35°38' E 139°46'0 0.0
2017-Feb-14 12:34N 35°38' E 139°46'0 0.0
2017-Feb-14 11:33N 35°38' E 139°46'0 0.0
2017-Feb-14 10:34N 35°38' E 139°46'0 0.0
2017-Feb-14 09:33N 35°38' E 139°46'0 0.0
2017-Feb-14 08:34N 35°38' E 139°46'0 0.0
2017-Feb-14 07:33N 35°38' E 139°46'0 0.0
2017-Feb-14 06:33N 35°38' E 139°46'0 0.0
2017-Feb-14 05:34N 35°38' E 139°46'0 0.0
2017-Feb-14 04:33N 35°38' E 139°46'0 0.0
2017-Feb-14 03:33N 35°38' E 139°46'0 0.0
2017-Feb-14 02:33N 35°38' E 139°46'0 0.0
2017-Feb-14 01:34N 35°38' E 139°46'0 0.0
2017-Feb-14 00:33N 35°38' E 139°46'0 0.0
2017-Feb-13 23:33N 35°38' E 139°46'0 0.0
2017-Feb-13 22:33N 35°38' E 139°46'0 0.0
2017-Feb-13 21:33N 35°38' E 139°46'0 0.0
2017-Feb-13 20:34N 35°38' E 139°46'0 0.0
2017-Feb-13 19:33N 35°38' E 139°46'0 0.0
2017-Feb-13 18:33N 35°38' E 139°46'0 0.0
2017-Feb-13 17:34N 35°38' E 139°46'0 0.0
2017-Feb-13 16:34N 35°38' E 139°46'0 0.0
2017-Feb-13 15:34N 35°38' E 139°46'0 0.0
2017-Feb-13 14:33N 35°38' E 139°46'0 0.0
2017-Feb-13 13:33N 35°38' E 139°46'0 0.0
2017-Feb-13 12:33N 35°38' E 139°46'0 0.0
2017-Feb-13 11:33N 35°38' E 139°46'0 0.0
2017-Feb-13 10:33N 35°38' E 139°46'0 0.0
2017-Feb-13 09:34N 35°38' E 139°46'0 0.0
2017-Feb-13 08:33N 35°38' E 139°46'0 0.0
2017-Feb-13 07:34N 35°38' E 139°46'0 0.0
2017-Feb-13 06:33N 35°38' E 139°46'0 0.0
2017-Feb-13 05:34N 35°38' E 139°46'0 0.0
2017-Feb-13 04:33N 35°38' E 139°46'0 0.0
2017-Feb-13 03:33N 35°38' E 139°46'0 0.0
2017-Feb-13 02:34N 35°38' E 139°46'0 0.0
2017-Feb-13 01:33N 35°38' E 139°46'0 0.0
2017-Feb-13 00:33N 35°38' E 139°46'0 0.0
2017-Feb-12 23:34N 35°38' E 139°46'0 0.0
2017-Feb-12 22:33N 35°38' E 139°46'0 0.0
2017-Feb-12 21:33N 35°38' E 139°46'0 0.0
2017-Feb-12 20:34N 35°38' E 139°46'0 0.0
2017-Feb-12 19:33N 35°38' E 139°46'2 1.9
2017-Feb-12 18:33N 35°36' E 139°46'0 0.2
2017-Feb-12 17:33N 35°37' E 139°46'2 1.5
2017-Feb-12 16:34N 35°38' E 139°46'2 2.3
2017-Feb-12 15:33N 35°36' E 139°47'1 1.4
2017-Feb-12 14:34N 35°37' E 139°46'1 1.1
2017-Feb-12 13:33N 35°38' E 139°46'0 0.0
2017-Feb-12 12:34N 35°38' E 139°46'0 0.0
2017-Feb-12 11:34N 35°38' E 139°46'0 0.0
2017-Feb-12 10:33N 35°38' E 139°46'2 2.3
2017-Feb-12 09:33N 35°36' E 139°47'1 0.6
2017-Feb-12 08:34N 35°35' E 139°47'3 3.0
2017-Feb-12 07:33N 35°38' E 139°46'0 0.0
2017-Feb-12 06:33N 35°38' E 139°46'0 0.0
2017-Feb-12 05:34N 35°38' E 139°46'0 0.0
2017-Feb-12 04:34N 35°38' E 139°46'0 0.0
2017-Feb-12 03:33N 35°38' E 139°46'0 0.0
2017-Feb-12 02:33N 35°38' E 139°46'0 0.0
2017-Feb-12 01:34N 35°38' E 139°46'0 0.0
2017-Feb-12 00:33N 35°38' E 139°46'0 0.0
2017-Feb-11 23:33N 35°38' E 139°46'2 1.9
2017-Feb-11 22:33N 35°37' E 139°47'1 1.1
2017-Feb-11 21:33N 35°36' E 139°47'1 0.7
2017-Feb-11 20:34N 35°36' E 139°47'2 2.1
2017-Feb-11 19:33N 35°38' E 139°45'0 0.0
2017-Feb-11 18:34N 35°38' E 139°45'0 0.0
2017-Feb-11 17:34N 35°38' E 139°45'0 0.0
2017-Feb-11 16:34N 35°38' E 139°45'0 0.0
2017-Feb-11 15:33N 35°38' E 139°45'0 0.0
2017-Feb-11 14:34N 35°38' E 139°45'0 0.0
2017-Feb-11 13:33N 35°38' E 139°45'0 0.0
2017-Feb-11 12:34N 35°38' E 139°45'  
Track history (hours):
 
Tides and Currents Weather Stations Pressure Air Temp Water Temp Dewpoint Dewpoint Depression Visibility Wind Speed Wind Dir Waves Ship Positions

Kaio Maru

Last reported at 2017-Feb-21 11:33 UTC. Time now 2017-Feb-21 12:07 UTC.
Position N 35°35' E 139°47'.

Length 36 m; draft 3.2 m.

Type: Tug. MMSI: 431001455.

Date/timePositionNaut miles runAvg speedWind from/ knotsBaromVisibWave heightAir tempDewpointWater temp
2017-Feb-21 11:33N 35°35' E 139°47'1 0.6
2017-Feb-21 10:34N 35°36' E 139°48'1 1.0
2017-Feb-21 09:33N 35°37' E 139°48'3 2.6
2017-Feb-21 08:33N 35°38' E 139°45'0 0.0
2017-Feb-21 07:33N 35°38' E 139°45'0 0.0
2017-Feb-21 06:33N 35°38' E 139°45'0 0.0
2017-Feb-21 05:33N 35°38' E 139°45'0 0.0
2017-Feb-21 04:34N 35°38' E 139°45'0 0.0
2017-Feb-21 03:34N 35°38' E 139°45'0 0.0
2017-Feb-21 02:33N 35°38' E 139°45'0 0.0
2017-Feb-21 01:33N 35°38' E 139°45'0 0.0
2017-Feb-21 00:33N 35°38' E 139°45'0 0.0
2017-Feb-20 23:33N 35°38' E 139°45'2 2.4
2017-Feb-20 22:33N 35°36' E 139°46'2 2.4
2017-Feb-20 21:33N 35°34' E 139°49'3 2.6
2017-Feb-20 20:29N 35°36' E 139°46'2 1.1
2017-Feb-20 18:33N 35°38' E 139°45'0 0.0
2017-Feb-20 17:33N 35°38' E 139°45'0 0.0
2017-Feb-20 16:33N 35°38' E 139°45'0 0.0
2017-Feb-20 15:33N 35°38' E 139°45'0 0.0
2017-Feb-20 14:33N 35°38' E 139°45'0 0.0
2017-Feb-20 13:34N 35°38' E 139°45'0 0.0
2017-Feb-20 12:33N 35°38' E 139°45'0 0.0
2017-Feb-20 11:33N 35°38' E 139°45'0 0.0
2017-Feb-20 10:33N 35°38' E 139°45'0 0.0
2017-Feb-20 09:33N 35°38' E 139°45'0 0.0
2017-Feb-20 08:33N 35°38' E 139°45'0 0.0
2017-Feb-20 07:33N 35°38' E 139°45'0 0.0
2017-Feb-20 06:33N 35°38' E 139°45'0 0.0
2017-Feb-20 05:33N 35°38' E 139°45'0 0.0
2017-Feb-20 04:33N 35°38' E 139°45'0 0.0
2017-Feb-20 03:33N 35°38' E 139°45'0 0.0
2017-Feb-20 02:33N 35°38' E 139°45'0 0.0
2017-Feb-20 01:33N 35°38' E 139°45'0 0.0
2017-Feb-20 00:33N 35°38' E 139°45'1 0.7
2017-Feb-19 23:33N 35°38' E 139°46'2 2.3
2017-Feb-19 22:33N 35°36' E 139°47'0 0.3
2017-Feb-19 21:34N 35°35' E 139°47'0 0.0
2017-Feb-19 20:33N 35°35' E 139°47'1 1.1
2017-Feb-19 19:34N 35°37' E 139°47'2 2.0
2017-Feb-19 18:34N 35°38' E 139°45'0 0.1
2017-Feb-19 17:33N 35°38' E 139°46'0 0.0
2017-Feb-19 16:34N 35°38' E 139°46'0 0.0
2017-Feb-19 15:33N 35°38' E 139°46'0 0.0
2017-Feb-19 14:34N 35°38' E 139°46'0 0.0
2017-Feb-19 13:34N 35°38' E 139°46'0 0.0
2017-Feb-19 12:33N 35°38' E 139°46'0 0.0
2017-Feb-19 11:34N 35°38' E 139°46'0 0.0
2017-Feb-19 10:34N 35°38' E 139°46'0 0.0
2017-Feb-19 09:33N 35°38' E 139°46'0 0.0
2017-Feb-19 08:33N 35°38' E 139°46'0 0.0
2017-Feb-19 07:33N 35°38' E 139°46'0 0.0
2017-Feb-19 06:33N 35°38' E 139°46'0 0.0
2017-Feb-19 05:33N 35°38' E 139°46'0 0.0
2017-Feb-19 04:33N 35°38' E 139°46'0 0.0
2017-Feb-19 03:34N 35°38' E 139°46'0 0.0
2017-Feb-19 02:34N 35°38' E 139°46'0 0.0
2017-Feb-19 01:34N 35°38' E 139°46'0 0.0
2017-Feb-19 00:34N 35°38' E 139°46'0 0.0
2017-Feb-18 23:33N 35°38' E 139°46'0 0.0
2017-Feb-18 22:33N 35°38' E 139°46'0 0.0
2017-Feb-18 21:33N 35°38' E 139°46'0 0.0
2017-Feb-18 20:33N 35°38' E 139°46'0 0.0
2017-Feb-18 19:33N 35°38' E 139°46'0 0.0
2017-Feb-18 18:34N 35°38' E 139°46'0 0.0
2017-Feb-18 17:33N 35°38' E 139°46'0 0.0
2017-Feb-18 16:33N 35°38' E 139°46'0 0.0
2017-Feb-18 15:33N 35°38' E 139°46'0 0.0
2017-Feb-18 14:33N 35°38' E 139°46'0 0.0
2017-Feb-18 13:34N 35°38' E 139°46'0 0.0
2017-Feb-18 12:33N 35°38' E 139°46'0 0.0
2017-Feb-18 11:33N 35°38' E 139°46'0 0.0
2017-Feb-18 10:33N 35°38' E 139°46'0 0.0
2017-Feb-18 09:34N 35°38' E 139°46'0 0.0
2017-Feb-18 08:33N 35°38' E 139°46'0 0.0
2017-Feb-18 07:34N 35°38' E 139°46'0 0.0
2017-Feb-18 06:33N 35°38' E 139°46'0 0.0
2017-Feb-18 05:33N 35°38' E 139°46'0 0.0
2017-Feb-18 04:34N 35°38' E 139°46'0 0.0
2017-Feb-18 03:34N 35°38' E 139°46'0 0.0
2017-Feb-18 02:33N 35°38' E 139°46'0 0.0
2017-Feb-18 01:33N 35°38' E 139°46'0 0.0
2017-Feb-18 00:33N 35°38' E 139°46'0 0.0
2017-Feb-17 23:34N 35°38' E 139°46'0 0.0
2017-Feb-17 22:34N 35°38' E 139°46'0 0.0
2017-Feb-17 21:33N 35°38' E 139°46'2 2.0
2017-Feb-17 20:33N 35°36' E 139°46'2 2.0
2017-Feb-17 19:34N 35°38' E 139°45'0 0.0
2017-Feb-17 18:34N 35°38' E 139°45'0 0.0
2017-Feb-17 17:33N 35°38' E 139°45'0 0.0
2017-Feb-17 16:33N 35°38' E 139°45'0 0.0
2017-Feb-17 15:33N 35°38' E 139°45'0 0.0
2017-Feb-17 14:33N 35°38' E 139°45'0 0.0
2017-Feb-17 13:33N 35°38' E 139°45'2 2.0
2017-Feb-17 12:33N 35°37' E 139°47'0 0.1
2017-Feb-17 11:33N 35°37' E 139°47'1 1.0
2017-Feb-17 10:33N 35°37' E 139°48'1 1.0
2017-Feb-17 09:33N 35°37' E 139°47'4 3.9
2017-Feb-17 08:34N 35°34' E 139°50'5 4.9
2017-Feb-17 07:33N 35°37' E 139°46'1 1.2
2017-Feb-17 06:34N 35°38' E 139°45'0 0.0
2017-Feb-17 05:33N 35°38' E 139°45'0 0.0
2017-Feb-17 04:33N 35°38' E 139°45'0 0.0
2017-Feb-17 03:33N 35°38' E 139°45'0 0.0
2017-Feb-17 02:34N 35°38' E 139°45'0 0.0
2017-Feb-17 01:34N 35°38' E 139°45'0 0.0
2017-Feb-17 00:33N 35°38' E 139°45'0 0.0
2017-Feb-16 23:33N 35°38' E 139°45'3 2.8
2017-Feb-16 22:33N 35°36' E 139°48'1 0.9
2017-Feb-16 21:33N 35°36' E 139°47'0 0.2
2017-Feb-16 20:33N 35°36' E 139°46'0 0.3
2017-Feb-16 19:34N 35°36' E 139°46'2 2.4
2017-Feb-16 18:33N 35°38' E 139°45'0 0.0
2017-Feb-16 17:33N 35°38' E 139°45'0 0.0
2017-Feb-16 16:33N 35°38' E 139°45'0 0.0
2017-Feb-16 15:34N 35°38' E 139°45'0 0.0
2017-Feb-16 14:33N 35°38' E 139°45'0 0.0
2017-Feb-16 13:33N 35°38' E 139°45'0 0.0
2017-Feb-16 12:34N 35°38' E 139°45'0 0.0
2017-Feb-16 11:34N 35°38' E 139°45'0 0.0
2017-Feb-16 10:33N 35°38' E 139°45'0 0.0
2017-Feb-16 09:34N 35°38' E 139°45'0 0.0
2017-Feb-16 08:33N 35°38' E 139°45'0 0.0
2017-Feb-16 07:34N 35°38' E 139°45'0 0.0
2017-Feb-16 06:33N 35°38' E 139°45'0 0.0
2017-Feb-16 05:33N 35°38' E 139°45'0 0.0
2017-Feb-16 04:34N 35°38' E 139°45'0 0.0
2017-Feb-16 03:34N 35°38' E 139°45'0 0.0
2017-Feb-16 02:34N 35°38' E 139°45'0 0.0
2017-Feb-16 01:34N 35°38' E 139°45'0 0.0
2017-Feb-16 00:33N 35°38' E 139°45'2 2.1
2017-Feb-15 23:33N 35°36' E 139°47'2 1.5
2017-Feb-15 22:33N 35°35' E 139°47'4 3.6
2017-Feb-15 21:34N 35°38' E 139°46'0 0.0
2017-Feb-15 20:34N 35°38' E 139°46'0 0.0
2017-Feb-15 19:34N 35°38' E 139°46'0 0.0
2017-Feb-15 18:33N 35°38' E 139°46'0 0.0
2017-Feb-15 17:33N 35°38' E 139°46'0 0.0
2017-Feb-15 16:33N 35°38' E 139°46'0 0.0
2017-Feb-15 15:34N 35°38' E 139°46'0 0.0
2017-Feb-15 14:33N 35°38' E 139°46'0 0.0
2017-Feb-15 13:34N 35°38' E 139°46'0 0.0
2017-Feb-15 12:34N 35°38' E 139°46'0 0.0
2017-Feb-15 11:34N 35°38' E 139°46'0 0.0
2017-Feb-15 10:33N 35°38' E 139°46'0 0.0
2017-Feb-15 09:33N 35°38' E 139°46'0 0.0
2017-Feb-15 08:34N 35°38' E 139°46'0 0.0
2017-Feb-15 07:34N 35°38' E 139°46'0 0.0
2017-Feb-15 06:34N 35°38' E 139°46'0 0.0
2017-Feb-15 05:34N 35°38' E 139°46'0 0.0
2017-Feb-15 04:34N 35°38' E 139°46'0 0.0
2017-Feb-15 03:33N 35°38' E 139°46'0 0.0
2017-Feb-15 02:34N 35°38' E 139°46'0 0.0
2017-Feb-15 01:33N 35°38' E 139°46'0 0.0
2017-Feb-15 00:33N 35°38' E 139°46'0 0.0
2017-Feb-14 23:34N 35°38' E 139°46'3 3.1
2017-Feb-14 22:33N 35°35' E 139°47'0 0.5
2017-Feb-14 21:34N 35°36' E 139°47'2 1.7
2017-Feb-14 20:34N 35°37' E 139°46'1 1.0
2017-Feb-14 19:34N 35°36' E 139°46'2 2.0
2017-Feb-14 18:34N 35°38' E 139°46'0 0.0
2017-Feb-14 17:33N 35°38' E 139°46'0 0.0
2017-Feb-14 16:34N 35°38' E 139°46'0 0.0
2017-Feb-14 15:33N 35°38' E 139°46'0 0.0
2017-Feb-14 14:33N 35°38' E 139°46'0 0.0
2017-Feb-14 13:33N 35°38' E 139°46'0 0.0
2017-Feb-14 12:34N 35°38' E 139°46'0 0.0
2017-Feb-14 11:33N 35°38' E 139°46'0 0.0
2017-Feb-14 10:34N 35°38' E 139°46'0 0.0
2017-Feb-14 09:33N 35°38' E 139°46'0 0.0
2017-Feb-14 08:34N 35°38' E 139°46'0 0.0
2017-Feb-14 07:33N 35°38' E 139°46'0 0.0
2017-Feb-14 06:33N 35°38' E 139°46'0 0.0
2017-Feb-14 05:34N 35°38' E 139°46'0 0.0
2017-Feb-14 04:33N 35°38' E 139°46'0 0.0
2017-Feb-14 03:33N 35°38' E 139°46'0 0.0
2017-Feb-14 02:33N 35°38' E 139°46'0 0.0
2017-Feb-14 01:34N 35°38' E 139°46'0 0.0
2017-Feb-14 00:33N 35°38' E 139°46'0 0.0
2017-Feb-13 23:33N 35°38' E 139°46'0 0.0
2017-Feb-13 22:33N 35°38' E 139°46'0 0.0
2017-Feb-13 21:33N 35°38' E 139°46'0 0.0
2017-Feb-13 20:34N 35°38' E 139°46'0 0.0
2017-Feb-13 19:33N 35°38' E 139°46'0 0.0
2017-Feb-13 18:33N 35°38' E 139°46'0 0.0
2017-Feb-13 17:34N 35°38' E 139°46'0 0.0
2017-Feb-13 16:34N 35°38' E 139°46'0 0.0
2017-Feb-13 15:34N 35°38' E 139°46'0 0.0
2017-Feb-13 14:33N 35°38' E 139°46'0 0.0
2017-Feb-13 13:33N 35°38' E 139°46'0 0.0
2017-Feb-13 12:33N 35°38' E 139°46'0 0.0
2017-Feb-13 11:33N 35°38' E 139°46'0 0.0
2017-Feb-13 10:33N 35°38' E 139°46'0 0.0
2017-Feb-13 09:34N 35°38' E 139°46'0 0.0
2017-Feb-13 08:33N 35°38' E 139°46'0 0.0
2017-Feb-13 07:34N 35°38' E 139°46'0 0.0
2017-Feb-13 06:33N 35°38' E 139°46'0 0.0
2017-Feb-13 05:34N 35°38' E 139°46'0 0.0
2017-Feb-13 04:33N 35°38' E 139°46'0 0.0
2017-Feb-13 03:33N 35°38' E 139°46'0 0.0
2017-Feb-13 02:34N 35°38' E 139°46'0 0.0
2017-Feb-13 01:33N 35°38' E 139°46'0 0.0
2017-Feb-13 00:33N 35°38' E 139°46'0 0.0
2017-Feb-12 23:34N 35°38' E 139°46'0 0.0
2017-Feb-12 22:33N 35°38' E 139°46'0 0.0
2017-Feb-12 21:33N 35°38' E 139°46'0 0.0
2017-Feb-12 20:34N 35°38' E 139°46'0 0.0
2017-Feb-12 19:33N 35°38' E 139°46'2 1.9
2017-Feb-12 18:33N 35°36' E 139°46'0 0.2
2017-Feb-12 17:33N 35°37' E 139°46'2 1.5
2017-Feb-12 16:34N 35°38' E 139°46'2 2.3
2017-Feb-12 15:33N 35°36' E 139°47'1 1.4
2017-Feb-12 14:34N 35°37' E 139°46'1 1.1
2017-Feb-12 13:33N 35°38' E 139°46'0 0.0
2017-Feb-12 12:34N 35°38' E 139°46'0 0.0
2017-Feb-12 11:34N 35°38' E 139°46'0 0.0
2017-Feb-12 10:33N 35°38' E 139°46'2 2.3
2017-Feb-12 09:33N 35°36' E 139°47'1 0.6
2017-Feb-12 08:34N 35°35' E 139°47'3 3.0
2017-Feb-12 07:33N 35°38' E 139°46'0 0.0
2017-Feb-12 06:33N 35°38' E 139°46'0 0.0
2017-Feb-12 05:34N 35°38' E 139°46'0 0.0
2017-Feb-12 04:34N 35°38' E 139°46'0 0.0
2017-Feb-12 03:33N 35°38' E 139°46'0 0.0
2017-Feb-12 02:33N 35°38' E 139°46'0 0.0
2017-Feb-12 01:34N 35°38' E 139°46'0 0.0
2017-Feb-12 00:33N 35°38' E 139°46'0 0.0
2017-Feb-11 23:33N 35°38' E 139°46'2 1.9
2017-Feb-11 22:33N 35°37' E 139°47'1 1.1
2017-Feb-11 21:33N 35°36' E 139°47'1 0.7
2017-Feb-11 20:34N 35°36' E 139°47'2 2.1
2017-Feb-11 19:33N 35°38' E 139°45'0 0.0
2017-Feb-11 18:34N 35°38' E 139°45'0 0.0
2017-Feb-11 17:34N 35°38' E 139°45'0 0.0
2017-Feb-11 16:34N 35°38' E 139°45'0 0.0
2017-Feb-11 15:33N 35°38' E 139°45'0 0.0
2017-Feb-11 14:34N 35°38' E 139°45'0 0.0
2017-Feb-11 13:33N 35°38' E 139°45'0 0.0
2017-Feb-11 12:34N 35°38' E 139°45'  

Dump ship's entire track history